Home   Weather   Russia   Khanty-Mansiysk   Past weeks
Flag for Russia

Past Weather in Khanty-Mansiysk, Russia — Yesterday and Last 2 Weeks

Currently: 52 °F. Sunny. (Weather station: Hanty-Mansijsk, Russia). See more current weather

Past Weather in Khanty-Mansiysk — Graph

°F

Khanty-Mansiysk Temperature Yesterday

Maximum temperature yesterday: 52 °F (at 3:00 pm)
Minimum temperature yesterday: 34 °F (at 3:00 am)
Average temperature yesterday: 44 °F

High & Low Weather Summary for the Past Weeks

 TemperatureHumidityPressure
High52 °F (Apr 13, 3:00 pm)100% (Mar 30, 7:30 pm)30.57 "Hg (Mar 30, 7:30 pm)
Low27 °F (Apr 8, 3:30 am)30% (Apr 13, 3:00 pm)29.39 "Hg (Apr 5, 11:00 pm)
Average37 °F79%30.02 "Hg
* Reported Mar 30 1:00 pm — Apr 14 1:00 pm, Khanty-Mansiysk. Weather by CustomWeather, © 2021

Note: Actual official high and low records may vary slightly from our data, if they occured in-between our weather recording intervals... More about our weather records

Khanty-Mansiysk Weather History for the Previous 24 Hours

Scroll right to see more
 ConditionsComfort  
Time TempWeatherWind HumidityBarometerVisibility
1:00 pm
Wed, Apr 14
52 °FSunny.8 mph44%30.18 "Hg10 mi
12:30 pm50 °FSunny.8 mph43%30.18 "Hg10 mi
12:00 pm50 °FSunny.8 mph47%30.18 "Hg10 mi
11:30 am50 °FSunny.8 mph43%30.18 "Hg10 mi
11:00 am46 °FSunny.8 mph50%30.18 "Hg10 mi
10:30 am46 °FSunny.8 mph53%30.15 "Hg10 mi
10:00 am43 °FSunny.6 mph57%30.15 "Hg10 mi
9:30 am43 °FSunny.6 mph57%30.15 "Hg10 mi
9:00 am41 °FSunny.8 mph61%30.15 "Hg10 mi
8:30 am41 °FSunny.3 mph66%30.12 "Hg10 mi
8:00 am39 °FLight rain. Passing clouds.3 mph65%30.15 "HgN/A
7:30 am41 °FLight rain. Passing clouds.3 mph57%30.12 "HgN/A
7:00 am43 °FLight rain. Clear.6 mph46%30.12 "HgN/A
6:30 am43 °FSunny.8 mph46%30.09 "Hg10 mi
6:00 am43 °FSunny.6 mph42%30.09 "Hg10 mi
5:30 am43 °FSunny.No wind42%30.09 "Hg10 mi
5:00 am41 °FClear.3 mph45%30.09 "Hg10 mi
4:30 am43 °FClear.3 mph42%30.12 "Hg10 mi
4:00 am41 °FClear.3 mph49%30.12 "Hg10 mi
3:30 am43 °FClear.8 mph46%30.12 "Hg10 mi
3:00 am43 °FClear.8 mph46%30.12 "Hg10 mi
2:30 am45 °FClear.13 mph39%30.12 "Hg10 mi
2:00 am45 °FClear.10 mph39%30.15 "Hg10 mi
1:30 am46 °FClear.13 mph34%30.15 "Hg10 mi
1:00 am46 °FClear.13 mph34%30.15 "Hg10 mi
12:30 am46 °FClear.13 mph37%30.18 "Hg10 mi
12:00 am46 °FClear.13 mph37%30.18 "Hg10 mi
11:30 pm
Tue, Apr 13
46 °FClear.13 mph37%30.21 "Hg10 mi
11:00 pm48 °FClear.13 mph34%30.21 "Hg10 mi
10:30 pm48 °FClear.13 mph37%30.24 "Hg10 mi
10:00 pm48 °FClear.13 mph37%30.24 "Hg10 mi
9:30 pm48 °FClear.13 mph37%30.27 "Hg10 mi
9:00 pm48 °FClear.13 mph37%30.27 "Hg10 mi
8:30 pm48 °FClear.13 mph34%30.27 "Hg10 mi
8:00 pm48 °FClear.13 mph37%30.30 "Hg10 mi
7:30 pm48 °FSunny.13 mph37%30.30 "Hg10 mi
7:00 pm48 °FSunny.13 mph37%30.30 "Hg10 mi
6:30 pm50 °FSunny.10 mph35%30.30 "Hg10 mi
6:00 pm50 °FSunny.15 mph35%30.30 "Hg10 mi
5:30 pm50 °FSunny.15 mph35%30.33 "Hg10 mi
5:00 pm52 °FSunny.15 mph30%30.33 "Hg10 mi
4:30 pm52 °FSunny.15 mph30%30.33 "Hg10 mi
4:00 pm52 °FSunny.17 mph32%30.36 "Hg10 mi
3:30 pm50 °FSunny.17 mph35%30.36 "Hg10 mi
3:00 pm52 °FSunny.20 mph30%30.36 "Hg10 mi
2:30 pm50 °FSunny.22 mph32%30.36 "Hg10 mi
Weather by CustomWeather, © 2021

See weather overview